Green Fast — ZDHA9 — position and weather

sailwx.info

Track history (hours):
 
Tides and Currents Weather Stations Pressure Air Temp Water Temp Dewpoint Dewpoint Depression Visibility Wind Speed Wind Dir Waves Ship Positions

Green Fast

Last reported at 2015-Jan-29 21:14 UTC. Time now 2015-Feb-01 05:39 UTC.
Position N 40°23' E 003°59'.

Length 118 m; draft 7.6 m.

Type: Cargo ship. MMSI: 236294000.

Date/timePositionNaut miles runAvg speedWind from/ knotsBaromVisibWave heightAir tempDewpointWater temp
2015-Jan-29 21:14N 40°23' E 003°59'6 5.7
2015-Jan-29 20:14N 40°26' E 003°53'2011.9
2015-Jan-29 18:32N 40°37' E 003°31'1212.3
2015-Jan-29 17:33N 40°43' E 003°17'1312.8
2015-Jan-29 16:33N 40°51' E 003°03'1312.6
2015-Jan-29 15:33N 40°57' E 002°49'1212.1
2015-Jan-29 14:33N 41°04' E 002°36'1312.7
2015-Jan-29 13:33N 41°11' E 002°22'13 4.1
2015-Jan-29 10:21N 41°21' E 002°10'0 0.0
2015-Jan-29 06:29N 41°21' E 002°10'6 5.7
2015-Jan-29 05:29N 41°15' E 002°09'3 2.5
2015-Jan-29 04:28N 41°13' E 002°07'9 9.6
2015-Jan-29 03:33N 41°06' E 001°60'1110.7
2015-Jan-29 02:32N 40°58' E 001°50'1010.6
2015-Jan-29 01:33N 40°50' E 001°41'1110.6
2015-Jan-29 00:33N 40°42' E 001°32'1110.6
2015-Jan-28 23:33N 40°35' E 001°22'1010.2
2015-Jan-28 22:33N 40°30' E 001°10'1210.5
2015-Jan-28 21:27N 40°23' E 000°58'76 2.8
2015-Jan-27 18:29N 39°13' E 000°19'1112.3
2015-Jan-27 17:33N 39°02' E 000°22'2611.9
2015-Jan-27 15:23N 38°36' E 000°23'3612.8
2015-Jan-27 12:33N 38°06' W 000°03'1212.2
2015-Jan-27 11:31N 37°56' W 000°12'1212.4
2015-Jan-27 10:33N 37°46' W 000°20'1212.2
2015-Jan-27 09:33N 37°36' W 000°29'1211.8
2015-Jan-27 08:33N 37°27' W 000°39'1212.3
2015-Jan-27 07:33N 37°19' W 000°51'1212.5
2015-Jan-27 06:33N 37°10' W 001°02'21112.4
2015-Jan-26 13:32N 35°60' W 005°10'1515.3
2015-Jan-26 12:33N 35°57' W 005°28'5 0.1
2015-Jan-24 12:13N 35°57' W 005°35'710.4
2015-Jan-24 11:33N 35°59' W 005°27'9 8.8
2015-Jan-24 10:33N 36°01' W 005°16'  
Track history (hours):
 
Tides and Currents Weather Stations Pressure Air Temp Water Temp Dewpoint Dewpoint Depression Visibility Wind Speed Wind Dir Waves Ship Positions

Green Fast

Last reported at 2015-Jan-29 21:14 UTC. Time now 2015-Feb-01 05:39 UTC.
Position N 40°23' E 003°59'.

Length 118 m; draft 7.6 m.

Type: Cargo ship. MMSI: 236294000.

Date/timePositionNaut miles runAvg speedWind from/ knotsBaromVisibWave heightAir tempDewpointWater temp
2015-Jan-29 21:14N 40°23' E 003°59'6 5.7
2015-Jan-29 20:14N 40°26' E 003°53'2011.9
2015-Jan-29 18:32N 40°37' E 003°31'1212.3
2015-Jan-29 17:33N 40°43' E 003°17'1312.8
2015-Jan-29 16:33N 40°51' E 003°03'1312.6
2015-Jan-29 15:33N 40°57' E 002°49'1212.1
2015-Jan-29 14:33N 41°04' E 002°36'1312.7
2015-Jan-29 13:33N 41°11' E 002°22'13 4.1
2015-Jan-29 10:21N 41°21' E 002°10'0 0.0
2015-Jan-29 06:29N 41°21' E 002°10'6 5.7
2015-Jan-29 05:29N 41°15' E 002°09'3 2.5
2015-Jan-29 04:28N 41°13' E 002°07'9 9.6
2015-Jan-29 03:33N 41°06' E 001°60'1110.7
2015-Jan-29 02:32N 40°58' E 001°50'1010.6
2015-Jan-29 01:33N 40°50' E 001°41'1110.6
2015-Jan-29 00:33N 40°42' E 001°32'1110.6
2015-Jan-28 23:33N 40°35' E 001°22'1010.2
2015-Jan-28 22:33N 40°30' E 001°10'1210.5
2015-Jan-28 21:27N 40°23' E 000°58'76 2.8
2015-Jan-27 18:29N 39°13' E 000°19'1112.3
2015-Jan-27 17:33N 39°02' E 000°22'2611.9
2015-Jan-27 15:23N 38°36' E 000°23'3612.8
2015-Jan-27 12:33N 38°06' W 000°03'1212.2
2015-Jan-27 11:31N 37°56' W 000°12'1212.4
2015-Jan-27 10:33N 37°46' W 000°20'1212.2
2015-Jan-27 09:33N 37°36' W 000°29'1211.8
2015-Jan-27 08:33N 37°27' W 000°39'1212.3
2015-Jan-27 07:33N 37°19' W 000°51'1212.5
2015-Jan-27 06:33N 37°10' W 001°02'21112.4
2015-Jan-26 13:32N 35°60' W 005°10'1515.3
2015-Jan-26 12:33N 35°57' W 005°28'5 0.1
2015-Jan-24 12:13N 35°57' W 005°35'710.4
2015-Jan-24 11:33N 35°59' W 005°27'9 8.8
2015-Jan-24 10:33N 36°01' W 005°16'  

Dump ship's entire track history